createdAt,value
2017-01-30T00:00:26.493Z,923.85
2017-01-30T00:00:54.594Z,923.86
2017-01-30T00:01:22.707Z,923.8
2017-01-30T00:01:50.606Z,923.83
2017-01-30T00:02:18.736Z,923.85
2017-01-30T00:02:46.811Z,923.83
2017-01-30T00:03:14.702Z,923.82
2017-01-30T00:03:42.773Z,923.81
2017-01-30T00:04:10.880Z,923.82
2017-01-30T00:04:38.983Z,923.84
2017-01-30T00:05:07.063Z,923.84
2017-01-30T00:05:35.859Z,923.88
2017-01-30T00:06:03.875Z,923.82
2017-01-30T00:06:32.661Z,923.87
2017-01-30T00:07:01.410Z,923.84
2017-01-30T00:07:30.293Z,923.88
2017-01-30T00:07:58.208Z,923.85
2017-01-30T00:08:26.308Z,923.9
2017-01-30T00:08:54.251Z,923.89
2017-01-30T00:09:22.232Z,923.83
2017-01-30T00:09:50.147Z,923.91
2017-01-30T00:10:18.067Z,923.93
2017-01-30T00:10:46.045Z,923.92
2017-01-30T00:11:14.743Z,923.99
2017-01-30T00:11:42.705Z,923.95
2017-01-30T00:12:10.773Z,923.99
2017-01-30T00:12:39.580Z,923.98
2017-01-30T00:13:07.525Z,924.06
2017-01-30T00:13:35.505Z,924.02
2017-01-30T00:14:03.396Z,923.97
2017-01-30T00:14:31.268Z,924.02
2017-01-30T00:15:00.014Z,924
2017-01-30T00:15:29.572Z,923.99
2017-01-30T00:15:57.648Z,923.94
2017-01-30T00:16:26.527Z,923.93
2017-01-30T00:16:55.288Z,923.98
2017-01-30T00:17:24.119Z,923.84
2017-01-30T00:17:53.666Z,923.88
2017-01-30T00:18:22.512Z,923.92
2017-01-30T00:18:52.038Z,923.87
2017-01-30T00:19:20.162Z,923.89
2017-01-30T00:19:48.085Z,923.87
2017-01-30T00:20:16.044Z,923.84
2017-01-30T00:20:44.109Z,923.87
2017-01-30T00:21:11.940Z,923.91
2017-01-30T00:21:39.978Z,923.87
2017-01-30T00:22:07.854Z,923.78
2017-01-30T00:22:35.754Z,923.85
2017-01-30T00:23:03.749Z,923.89
2017-01-30T00:23:31.841Z,923.91
2017-01-30T00:23:59.878Z,923.95
2017-01-30T00:24:28.640Z,923.94
2017-01-30T00:24:56.545Z,923.84
2017-01-30T00:25:25.228Z,923.91
2017-01-30T00:25:54.065Z,923.94
2017-01-30T00:26:22.940Z,923.95
2017-01-30T00:26:51.014Z,923.95
2017-01-30T00:27:18.927Z,923.95
2017-01-30T00:27:47.005Z,923.95
2017-01-30T00:28:15.059Z,923.92
2017-01-30T00:28:43.740Z,923.93
2017-01-30T00:29:11.707Z,924
2017-01-30T00:29:39.704Z,923.98
2017-01-30T00:30:07.701Z,924
2017-01-30T00:30:35.502Z,924.02
2017-01-30T00:31:03.447Z,923.99
2017-01-30T00:31:32.253Z,924.02
2017-01-30T00:32:00.174Z,924.05
2017-01-30T00:32:28.921Z,924.04
2017-01-30T00:32:56.908Z,924.03
2017-01-30T00:33:24.903Z,924.04
2017-01-30T00:33:53.525Z,924.06
2017-01-30T00:34:21.602Z,924
2017-01-30T00:34:49.496Z,924.05
2017-01-30T00:35:17.411Z,924.07
2017-01-30T00:36:23.659Z,924.05
2017-01-30T00:36:52.423Z,924.06
2017-01-30T00:37:21.009Z,924.07
2017-01-30T00:37:49.878Z,924.07
2017-01-30T00:38:17.877Z,924.07
2017-01-30T00:38:46.757Z,924.1
2017-01-30T00:39:14.825Z,924.13
2017-01-30T00:39:42.885Z,924.1
2017-01-30T00:40:11.770Z,924.1
2017-01-30T00:40:39.786Z,924.09
2017-01-30T00:41:08.692Z,924.12
2017-01-30T00:41:36.732Z,924.06
2017-01-30T00:42:06.285Z,924.14
2017-01-30T00:42:34.166Z,924.1
2017-01-30T00:43:02.235Z,924.11
2017-01-30T00:43:30.334Z,924.14
2017-01-30T00:43:58.376Z,924.14
2017-01-30T00:44:26.367Z,924.18
2017-01-30T00:44:54.368Z,924.16
2017-01-30T00:45:22.475Z,924.15
2017-01-30T00:45:51.256Z,924.13
2017-01-30T00:46:19.129Z,924.16
2017-01-30T00:46:47.920Z,924.17
2017-01-30T00:47:15.910Z,924.15
2017-01-30T00:47:44.597Z,924.12
2017-01-30T00:48:12.446Z,924.1
2017-01-30T00:48:41.304Z,924.1
2017-01-30T00:49:09.401Z,924.12
2017-01-30T00:49:37.385Z,924.13
2017-01-30T00:50:05.421Z,924.14
2017-01-30T00:50:33.518Z,924.18
2017-01-30T00:51:01.484Z,924.14
2017-01-30T00:51:29.562Z,924.18
2017-01-30T00:51:58.363Z,924.1
2017-01-30T00:52:26.307Z,924.16
2017-01-30T00:52:55.160Z,924.16
2017-01-30T00:53:24.010Z,924.16
2017-01-30T00:53:52.052Z,924.18
2017-01-30T00:54:19.739Z,924.17
2017-01-30T00:54:47.833Z,924.19
2017-01-30T00:55:15.905Z,924.15
2017-01-30T00:55:44.013Z,924.16
2017-01-30T00:56:12.074Z,924.19
2017-01-30T00:56:40.909Z,924.19
2017-01-30T00:57:09.676Z,924.19
2017-01-30T00:57:37.589Z,924.16
2017-01-30T00:58:05.548Z,924.17
2017-01-30T00:58:33.683Z,924.18
2017-01-30T00:59:01.723Z,924.16
2017-01-30T00:59:29.585Z,924.18
2017-01-30T00:59:57.648Z,924.15
2017-01-30T01:00:25.842Z,924.16
2017-01-30T01:00:53.883Z,924.14
2017-01-30T01:01:21.761Z,924.17
2017-01-30T01:01:50.445Z,924.21
2017-01-30T01:02:19.220Z,924.17
2017-01-30T01:02:47.307Z,924.17
2017-01-30T01:03:16.110Z,924.2
2017-01-30T01:03:44.108Z,924.19
2017-01-30T01:04:12.191Z,924.26
2017-01-30T01:04:40.282Z,924.3
2017-01-30T01:05:08.239Z,924.26
2017-01-30T01:05:37.090Z,924.26
2017-01-30T01:06:05.854Z,924.23
2017-01-30T01:06:33.767Z,924.22
2017-01-30T01:07:01.844Z,924.27
2017-01-30T01:07:29.984Z,924.27
2017-01-30T01:07:57.888Z,924.25
2017-01-30T01:08:26.002Z,924.26
2017-01-30T01:08:53.916Z,924.27
2017-01-30T01:09:21.995Z,924.27
2017-01-30T01:09:50.744Z,924.28
2017-01-30T01:10:19.577Z,924.27
2017-01-30T01:10:48.340Z,924.34
2017-01-30T01:11:17.079Z,924.3
2017-01-30T01:11:44.868Z,924.3
2017-01-30T01:12:13.640Z,924.3
2017-01-30T01:12:41.729Z,924.26
2017-01-30T01:13:10.601Z,924.33
2017-01-30T01:13:39.463Z,924.34
2017-01-30T01:14:08.311Z,924.32
2017-01-30T01:14:36.301Z,924.3
2017-01-30T01:15:42.631Z,924.38
2017-01-30T01:16:11.305Z,924.39
2017-01-30T01:16:39.966Z,924.39
2017-01-30T01:17:09.594Z,924.37
2017-01-30T01:17:38.456Z,924.35
2017-01-30T01:18:07.242Z,924.41
2017-01-30T01:18:35.218Z,924.38
2017-01-30T01:19:04.055Z,924.38
2017-01-30T01:19:31.978Z,924.39
2017-01-30T01:19:59.997Z,924.39
2017-01-30T01:20:28.750Z,924.36
2017-01-30T01:20:57.722Z,924.36
2017-01-30T01:21:25.790Z,924.37
2017-01-30T01:21:53.855Z,924.36
2017-01-30T01:22:21.748Z,924.36
2017-01-30T01:22:49.847Z,924.35
2017-01-30T01:23:17.888Z,924.36
2017-01-30T01:23:47.533Z,924.33
2017-01-30T01:24:15.613Z,924.38
2017-01-30T01:24:43.455Z,924.4
2017-01-30T01:25:12.237Z,924.43
2017-01-30T01:25:41.082Z,924.4
2017-01-30T01:26:08.999Z,924.42
2017-01-30T01:26:37.084Z,924.38
2017-01-30T01:27:05.186Z,924.4
2017-01-30T01:27:33.303Z,924.4
2017-01-30T01:28:01.214Z,924.39
2017-01-30T01:28:30.771Z,924.38
2017-01-30T01:28:58.847Z,924.41
2017-01-30T01:29:26.910Z,924.42
2017-01-30T01:29:54.828Z,924.45
2017-01-30T01:30:22.707Z,924.41
2017-01-30T01:30:50.791Z,924.43
2017-01-30T01:31:18.804Z,924.4
2017-01-30T01:31:46.768Z,924.41
2017-01-30T01:32:14.674Z,924.45
2017-01-30T01:32:42.641Z,924.38
2017-01-30T01:33:10.685Z,924.43
2017-01-30T01:33:39.332Z,924.41
2017-01-30T01:34:08.188Z,924.38
2017-01-30T01:34:35.996Z,924.4
2017-01-30T01:35:04.094Z,924.39
2017-01-30T01:35:31.883Z,924.43
2017-01-30T01:36:00.823Z,924.4
2017-01-30T01:36:28.904Z,924.4
2017-01-30T01:36:57.678Z,924.34
2017-01-30T01:37:26.497Z,924.34
2017-01-30T01:37:55.314Z,924.36
2017-01-30T01:38:24.741Z,924.35
2017-01-30T01:38:53.577Z,924.37
2017-01-30T01:39:21.550Z,924.35
2017-01-30T01:39:50.234Z,924.34
2017-01-30T01:40:18.191Z,924.36
2017-01-30T01:40:47.040Z,924.34
2017-01-30T01:41:15.122Z,924.36
2017-01-30T01:41:43.134Z,924.38
2017-01-30T01:42:11.919Z,924.35
2017-01-30T01:42:39.949Z,924.34
2017-01-30T01:43:08.803Z,924.34
2017-01-30T01:43:38.383Z,924.32
2017-01-30T01:44:06.335Z,924.3
2017-01-30T01:44:34.323Z,924.29
2017-01-30T01:45:02.380Z,924.34
2017-01-30T01:45:30.357Z,924.29
2017-01-30T01:45:58.359Z,924.28
2017-01-30T01:46:26.436Z,924.32
2017-01-30T01:46:54.576Z,924.31
2017-01-30T01:47:22.562Z,924.31
2017-01-30T01:47:52.002Z,924.31
2017-01-30T01:48:20.087Z,924.23
2017-01-30T01:48:48.082Z,924.23
2017-01-30T01:49:16.048Z,924.31
2017-01-30T01:49:43.916Z,924.28
2017-01-30T01:50:11.989Z,924.27
2017-01-30T01:50:39.845Z,924.26
2017-01-30T01:51:07.998Z,924.26
2017-01-30T01:51:36.070Z,924.27
2017-01-30T01:52:04.071Z,924.32
2017-01-30T01:52:32.077Z,924.31
2017-01-30T01:53:01.706Z,924.36
2017-01-30T01:53:29.783Z,924.32
2017-01-30T01:53:57.869Z,924.29
2017-01-30T01:55:04.894Z,924.3
2017-01-30T01:55:32.962Z,924.29
2017-01-30T01:56:00.843Z,924.26
2017-01-30T01:56:29.430Z,924.27
2017-01-30T01:56:57.510Z,924.28
2017-01-30T01:57:25.425Z,924.3
2017-01-30T01:57:54.280Z,924.28
2017-01-30T01:58:22.251Z,924.28
2017-01-30T01:58:50.262Z,924.25
2017-01-30T01:59:18.372Z,924.26
2017-01-30T01:59:47.145Z,924.24
2017-01-30T02:00:15.096Z,924.25
2017-01-30T02:00:43.172Z,924.22
2017-01-30T02:01:11.927Z,924.23
2017-01-30T02:01:39.911Z,924.23
2017-01-30T02:02:07.742Z,924.26
2017-01-30T02:02:35.692Z,924.25
2017-01-30T02:03:03.504Z,924.22
2017-01-30T02:03:31.498Z,924.26
2017-01-30T02:03:59.533Z,924.23
2017-01-30T02:04:28.409Z,924.25
2017-01-30T02:04:56.465Z,924.2
2017-01-30T02:05:25.345Z,924.26
2017-01-30T02:05:54.208Z,924.24
2017-01-30T02:06:22.289Z,924.27
2017-01-30T02:06:50.146Z,924.26
2017-01-30T02:07:19.002Z,924.28
2017-01-30T02:07:46.826Z,924.27
2017-01-30T02:08:14.721Z,924.28
2017-01-30T02:08:42.696Z,924.29
2017-01-30T02:09:10.714Z,924.28
2017-01-30T02:09:38.763Z,924.27
2017-01-30T02:10:07.609Z,924.31
2017-01-30T02:10:35.722Z,924.27
2017-01-30T02:11:04.365Z,924.3
2017-01-30T02:11:32.350Z,924.29
2017-01-30T02:12:00.328Z,924.32
2017-01-30T02:12:28.189Z,924.33
2017-01-30T02:12:56.141Z,924.28
2017-01-30T02:13:24.061Z,924.29
2017-01-30T02:13:51.959Z,924.3
2017-01-30T02:14:19.876Z,924.3
2017-01-30T02:14:47.670Z,924.3
2017-01-30T02:15:15.537Z,924.27
2017-01-30T02:15:44.302Z,924.26
2017-01-30T02:16:12.365Z,924.28
2017-01-30T02:16:40.233Z,924.26
2017-01-30T02:17:08.361Z,924.22
2017-01-30T02:17:36.999Z,924.25
2017-01-30T02:18:04.862Z,924.22
2017-01-30T02:18:32.833Z,924.2
2017-01-30T02:19:00.838Z,924.23
2017-01-30T02:19:28.964Z,924.21
2017-01-30T02:19:57.720Z,924.18
2017-01-30T02:20:26.496Z,924.2
2017-01-30T02:20:54.506Z,924.17
2017-01-30T02:21:22.508Z,924.2
2017-01-30T02:21:50.625Z,924.2
2017-01-30T02:22:18.700Z,924.22
2017-01-30T02:22:47.468Z,924.2
2017-01-30T02:23:15.544Z,924.21
2017-01-30T02:23:43.502Z,924.19
2017-01-30T02:24:12.295Z,924.23
2017-01-30T02:24:41.154Z,924.2
2017-01-30T02:25:10.020Z,924.22
2017-01-30T02:25:38.002Z,924.24
2017-01-30T02:26:05.962Z,924.18
2017-01-30T02:26:33.950Z,924.22
2017-01-30T02:27:01.848Z,924.18
2017-01-30T02:27:30.016Z,924.2
2017-01-30T02:27:58.025Z,924.19
2017-01-30T02:28:25.896Z,924.16
2017-01-30T02:28:53.838Z,924.17
2017-01-30T02:29:21.908Z,924.12
2017-01-30T02:29:49.769Z,924.1
2017-01-30T02:30:17.730Z,924.13
2017-01-30T02:30:45.705Z,924.13
2017-01-30T02:31:14.475Z,924.15
2017-01-30T02:31:43.078Z,924.13
2017-01-30T02:32:10.972Z,924.11
2017-01-30T02:32:39.753Z,924.11
2017-01-30T02:33:07.651Z,924.13
2017-01-30T02:34:13.887Z,924.09
2017-01-30T02:34:41.779Z,924.08
2017-01-30T02:35:09.670Z,924.11
2017-01-30T02:35:37.565Z,924.09
2017-01-30T02:36:06.338Z,924.08
2017-01-30T02:36:35.273Z,924.06
2017-01-30T02:37:03.065Z,924.03
2017-01-30T02:37:31.026Z,924.01
2017-01-30T02:37:59.130Z,924
2017-01-30T02:38:28.782Z,924
2017-01-30T02:38:56.767Z,923.97
2017-01-30T02:39:25.677Z,923.98
2017-01-30T02:39:54.349Z,923.99
2017-01-30T02:40:23.109Z,923.96
2017-01-30T02:40:51.087Z,923.92
2017-01-30T02:41:19.192Z,923.91
2017-01-30T02:41:47.137Z,923.89
2017-01-30T02:42:15.035Z,923.92
2017-01-30T02:42:43.034Z,923.92
2017-01-30T02:43:11.906Z,923.94
2017-01-30T02:43:40.790Z,923.9
2017-01-30T02:44:08.728Z,923.9
2017-01-30T02:44:37.609Z,923.89
2017-01-30T02:45:05.504Z,923.9
2017-01-30T02:45:33.602Z,923.85
2017-01-30T02:46:01.543Z,923.79
2017-01-30T02:46:29.544Z,923.83
2017-01-30T02:46:57.463Z,923.83
2017-01-30T02:47:25.443Z,923.81
2017-01-30T02:47:54.290Z,923.8
2017-01-30T02:48:23.083Z,923.8
2017-01-30T02:48:51.135Z,923.79
2017-01-30T02:49:19.031Z,923.77
2017-01-30T02:49:47.136Z,923.81
2017-01-30T02:50:15.966Z,923.77
2017-01-30T02:50:43.961Z,923.8
2017-01-30T02:51:12.038Z,923.81
2017-01-30T02:51:40.059Z,923.82
2017-01-30T02:52:07.836Z,923.8
2017-01-30T02:52:35.947Z,923.82
2017-01-30T02:53:04.800Z,923.83
2017-01-30T02:53:32.714Z,923.83
2017-01-30T02:54:00.685Z,923.84
2017-01-30T02:54:29.520Z,923.81
2017-01-30T02:54:58.379Z,923.8
2017-01-30T02:55:27.044Z,923.81
2017-01-30T02:55:55.008Z,923.82
2017-01-30T02:56:23.908Z,923.82
2017-01-30T02:56:51.858Z,923.8
2017-01-30T02:57:19.853Z,923.82
2017-01-30T02:57:48.610Z,923.86
2017-01-30T02:58:16.614Z,923.87
2017-01-30T02:58:45.435Z,923.9
2017-01-30T02:59:14.185Z,923.87
2017-01-30T02:59:42.196Z,923.93
2017-01-30T03:00:11.073Z,923.89
2017-01-30T03:00:39.169Z,923.9
2017-01-30T03:01:07.104Z,923.9
2017-01-30T03:01:35.858Z,923.9
2017-01-30T03:02:03.879Z,923.88
2017-01-30T03:02:32.649Z,923.9
2017-01-30T03:03:00.706Z,923.86
2017-01-30T03:03:29.484Z,923.87
2017-01-30T03:03:57.558Z,923.86
2017-01-30T03:04:25.479Z,923.82
2017-01-30T03:04:53.552Z,923.85
2017-01-30T03:05:21.604Z,923.83
2017-01-30T03:05:49.686Z,923.78
2017-01-30T03:06:18.444Z,923.86
2017-01-30T03:06:47.202Z,923.83
2017-01-30T03:07:15.107Z,923.83
2017-01-30T03:07:43.077Z,923.83
2017-01-30T03:08:11.027Z,923.82
2017-01-30T03:08:39.809Z,923.79
2017-01-30T03:09:08.544Z,923.76
2017-01-30T03:09:36.520Z,923.78
2017-01-30T03:10:04.600Z,923.76
2017-01-30T03:10:32.509Z,923.77
2017-01-30T03:11:00.431Z,923.75
2017-01-30T03:11:28.411Z,923.75
2017-01-30T03:11:56.395Z,923.74
2017-01-30T03:12:24.384Z,923.68
2017-01-30T03:13:30.711Z,923.74
2017-01-30T03:13:58.808Z,923.7
2017-01-30T03:14:26.693Z,923.71
2017-01-30T03:14:54.667Z,923.7
2017-01-30T03:15:23.444Z,923.72
2017-01-30T03:15:52.997Z,923.68
2017-01-30T03:16:20.989Z,923.68
2017-01-30T03:16:49.030Z,923.66
2017-01-30T03:17:17.908Z,923.66
2017-01-30T03:17:46.700Z,923.63
2017-01-30T03:18:14.778Z,923.63
2017-01-30T03:18:42.818Z,923.62
2017-01-30T03:19:10.891Z,923.64
2017-01-30T03:19:38.950Z,923.6
2017-01-30T03:20:06.840Z,923.63
2017-01-30T03:20:34.756Z,923.59
2017-01-30T03:21:03.489Z,923.62
2017-01-30T03:21:32.351Z,923.64
2017-01-30T03:22:00.683Z,923.63
2017-01-30T03:22:28.699Z,923.58
2017-01-30T03:22:56.603Z,923.57
2017-01-30T03:23:26.222Z,923.56
2017-01-30T03:23:55.097Z,923.59
2017-01-30T03:24:23.090Z,923.52
2017-01-30T03:24:51.097Z,923.56
2017-01-30T03:25:19.212Z,923.55
2017-01-30T03:25:47.295Z,923.57
2017-01-30T03:26:15.296Z,923.55
2017-01-30T03:26:43.369Z,923.53
2017-01-30T03:27:11.344Z,923.51
2017-01-30T03:27:39.352Z,923.53
2017-01-30T03:28:07.313Z,923.53
2017-01-30T03:28:35.214Z,923.5
2017-01-30T03:29:03.321Z,923.49
2017-01-30T03:29:31.181Z,923.5
2017-01-30T03:29:59.932Z,923.53
2017-01-30T03:30:28.006Z,923.5
2017-01-30T03:30:55.972Z,923.53
2017-01-30T03:31:24.009Z,923.48
2017-01-30T03:31:52.016Z,923.43
2017-01-30T03:32:19.828Z,923.43
2017-01-30T03:32:48.697Z,923.45
2017-01-30T03:33:16.765Z,923.43
2017-01-30T03:33:45.598Z,923.43
2017-01-30T03:34:14.463Z,923.44
2017-01-30T03:34:43.228Z,923.42
2017-01-30T03:35:11.093Z,923.39
2017-01-30T03:35:39.989Z,923.4
2017-01-30T03:36:07.846Z,923.4
2017-01-30T03:36:36.680Z,923.38
2017-01-30T03:37:06.318Z,923.38
2017-01-30T03:37:35.186Z,923.35
2017-01-30T03:38:03.146Z,923.32
2017-01-30T03:38:31.116Z,923.34
2017-01-30T03:38:59.197Z,923.33
2017-01-30T03:39:27.016Z,923.32
2017-01-30T03:39:55.894Z,923.31
2017-01-30T03:40:23.822Z,923.32
2017-01-30T03:40:51.894Z,923.29
2017-01-30T03:41:19.889Z,923.27
2017-01-30T03:41:47.948Z,923.29
2017-01-30T03:42:15.812Z,923.26
2017-01-30T03:42:43.809Z,923.22
2017-01-30T03:43:11.787Z,923.27
2017-01-30T03:43:40.475Z,923.25
2017-01-30T03:44:08.395Z,923.25
2017-01-30T03:44:36.450Z,923.22
2017-01-30T03:45:04.437Z,923.22
2017-01-30T03:45:32.407Z,923.23
2017-01-30T03:46:00.500Z,923.25
2017-01-30T03:46:28.491Z,923.22
2017-01-30T03:46:56.549Z,923.26
2017-01-30T03:47:24.607Z,923.23
2017-01-30T03:47:53.279Z,923.16
2017-01-30T03:48:21.137Z,923.17
2017-01-30T03:48:49.798Z,923.15
2017-01-30T03:49:17.874Z,923.16
2017-01-30T03:49:45.970Z,923.14
2017-01-30T03:50:13.994Z,923.08
2017-01-30T03:50:42.070Z,923.11
2017-01-30T03:51:11.708Z,923.04
2017-01-30T03:51:39.780Z,923.11
2017-01-30T03:52:47.049Z,923.07
2017-01-30T03:53:15.813Z,923.1
2017-01-30T03:53:44.385Z,923.03
2017-01-30T03:54:12.363Z,923.02
2017-01-30T03:54:40.176Z,923.04
2017-01-30T03:55:08.085Z,923.03
2017-01-30T03:55:36.836Z,922.96
2017-01-30T03:56:04.623Z,922.99
2017-01-30T03:56:34.193Z,922.99
2017-01-30T03:57:02.116Z,923.02
2017-01-30T03:57:30.187Z,923.01
2017-01-30T03:57:58.235Z,923
2017-01-30T03:58:26.300Z,922.98
2017-01-30T03:58:55.917Z,922.94
2017-01-30T03:59:23.903Z,922.93
2017-01-30T03:59:51.997Z,922.97
2017-01-30T04:00:20.033Z,922.99
2017-01-30T04:00:48.109Z,922.95
2017-01-30T04:01:16.015Z,922.96
2017-01-30T04:01:44.713Z,922.93
2017-01-30T04:02:12.810Z,922.98
2017-01-30T04:02:40.773Z,922.97
2017-01-30T04:03:08.868Z,922.95
2017-01-30T04:03:36.951Z,922.94
2017-01-30T04:04:04.962Z,922.95
2017-01-30T04:04:33.004Z,922.97
2017-01-30T04:05:01.871Z,922.97
2017-01-30T04:05:30.750Z,922.95
2017-01-30T04:05:58.551Z,922.91
2017-01-30T04:06:26.522Z,922.89
2017-01-30T04:06:55.402Z,922.93
2017-01-30T04:07:23.514Z,922.89
2017-01-30T04:07:51.590Z,922.9
2017-01-30T04:08:19.619Z,922.88
2017-01-30T04:08:47.562Z,922.92
2017-01-30T04:09:17.089Z,922.88
2017-01-30T04:09:45.676Z,922.85
2017-01-30T04:10:13.730Z,922.92
2017-01-30T04:10:41.685Z,922.88
2017-01-30T04:11:10.469Z,922.87
2017-01-30T04:11:38.450Z,922.88
2017-01-30T04:12:06.274Z,922.91
2017-01-30T04:12:34.253Z,922.84
2017-01-30T04:13:02.209Z,922.92
2017-01-30T04:13:30.334Z,922.92
2017-01-30T04:13:58.133Z,922.94
2017-01-30T04:14:26.095Z,922.93
2017-01-30T04:14:54.125Z,922.88
2017-01-30T04:15:22.858Z,922.95
2017-01-30T04:15:50.920Z,922.87
2017-01-30T04:16:18.801Z,922.89
2017-01-30T04:16:47.679Z,922.88
2017-01-30T04:17:15.639Z,922.83
2017-01-30T04:17:44.484Z,922.89
2017-01-30T04:18:12.296Z,922.87
2017-01-30T04:18:40.306Z,922.86
2017-01-30T04:19:08.308Z,922.85
2017-01-30T04:19:36.422Z,922.82
2017-01-30T04:20:04.496Z,922.81
2017-01-30T04:20:32.493Z,922.81
2017-01-30T04:21:01.269Z,922.83
2017-01-30T04:21:29.349Z,922.86
2017-01-30T04:21:58.141Z,922.83
2017-01-30T04:22:26.431Z,922.87
2017-01-30T04:22:54.542Z,922.84
2017-01-30T04:23:22.648Z,922.85
2017-01-30T04:23:50.686Z,922.83
2017-01-30T04:24:18.678Z,922.82
2017-01-30T04:24:46.802Z,922.82
2017-01-30T04:25:14.767Z,922.86
2017-01-30T04:25:42.853Z,922.85
2017-01-30T04:26:10.761Z,922.82
2017-01-30T04:26:38.620Z,922.84
2017-01-30T04:27:06.513Z,922.84
2017-01-30T04:27:34.565Z,922.84
2017-01-30T04:28:03.398Z,922.84
2017-01-30T04:28:32.298Z,922.83
2017-01-30T04:29:00.205Z,922.84
2017-01-30T04:29:28.211Z,922.84
2017-01-30T04:29:57.067Z,922.78
2017-01-30T04:30:24.868Z,922.86
2017-01-30T04:30:52.949Z,922.84
2017-01-30T04:31:59.181Z,922.79
2017-01-30T04:32:27.415Z,922.78
2017-01-30T04:32:55.201Z,922.77
2017-01-30T04:33:24.054Z,922.8
2017-01-30T04:33:52.044Z,922.76
2017-01-30T04:34:19.943Z,922.79
2017-01-30T04:34:47.914Z,922.82
2017-01-30T04:35:15.972Z,922.82
2017-01-30T04:35:44.071Z,922.78
2017-01-30T04:36:12.945Z,922.76
2017-01-30T04:36:41.023Z,922.77
2017-01-30T04:37:09.053Z,922.77
2017-01-30T04:37:37.382Z,922.78
2017-01-30T04:38:05.442Z,922.75
2017-01-30T04:38:33.513Z,922.75
2017-01-30T04:39:01.612Z,922.79
2017-01-30T04:39:30.344Z,922.77
2017-01-30T04:39:58.342Z,922.75
2017-01-30T04:40:26.241Z,922.74
2017-01-30T04:40:54.932Z,922.73
2017-01-30T04:41:23.017Z,922.72
2017-01-30T04:41:50.984Z,922.73
2017-01-30T04:42:18.814Z,922.73
2017-01-30T04:42:47.057Z,922.71
2017-01-30T04:43:15.923Z,922.71
2017-01-30T04:43:43.957Z,922.71
2017-01-30T04:44:12.716Z,922.68
2017-01-30T04:44:40.802Z,922.67
2017-01-30T04:45:09.655Z,922.65
2017-01-30T04:45:37.720Z,922.69
2017-01-30T04:46:05.723Z,922.68
2017-01-30T04:46:34.469Z,922.63
2017-01-30T04:47:03.154Z,922.65
2017-01-30T04:47:31.086Z,922.61
2017-01-30T04:47:59.215Z,922.62
2017-01-30T04:48:27.883Z,922.58
2017-01-30T04:48:55.869Z,922.6
2017-01-30T04:49:24.701Z,922.59
2017-01-30T04:49:52.466Z,922.63
2017-01-30T04:50:20.557Z,922.61
2017-01-30T04:50:48.534Z,922.58
2017-01-30T04:51:16.357Z,922.6
2017-01-30T04:51:45.107Z,922.61
2017-01-30T04:52:13.067Z,922.61
2017-01-30T04:52:41.314Z,922.61
2017-01-30T04:53:09.379Z,922.59
2017-01-30T04:53:37.939Z,922.57
2017-01-30T04:54:05.907Z,922.57
2017-01-30T04:54:34.637Z,922.58
2017-01-30T04:55:03.474Z,922.57
2017-01-30T04:55:32.315Z,922.56
2017-01-30T04:56:00.225Z,922.59
2017-01-30T04:56:28.266Z,922.58
2017-01-30T04:56:56.326Z,922.56
2017-01-30T04:57:24.221Z,922.57
2017-01-30T04:57:53.102Z,922.56
2017-01-30T04:58:21.194Z,922.53
2017-01-30T04:58:49.225Z,922.58
2017-01-30T04:59:17.303Z,922.6
2017-01-30T04:59:45.393Z,922.58
2017-01-30T05:00:14.156Z,922.6
2017-01-30T05:00:42.204Z,922.61
2017-01-30T05:01:10.300Z,922.64
2017-01-30T05:01:38.277Z,922.6
2017-01-30T05:02:06.289Z,922.61
2017-01-30T05:02:34.193Z,922.61
2017-01-30T05:03:02.156Z,922.6
2017-01-30T05:03:30.221Z,922.6
2017-01-30T05:03:58.093Z,922.63
2017-01-30T05:04:26.880Z,922.57
2017-01-30T05:04:54.775Z,922.56
2017-01-30T05:05:22.831Z,922.59
2017-01-30T05:05:51.563Z,922.55
2017-01-30T05:06:19.452Z,922.51
2017-01-30T05:06:47.404Z,922.53
2017-01-30T05:07:15.368Z,922.52
2017-01-30T05:07:43.352Z,922.55
2017-01-30T05:08:11.590Z,922.5
2017-01-30T05:08:41.160Z,922.57
2017-01-30T05:09:09.055Z,922.54
2017-01-30T05:09:37.036Z,922.56
2017-01-30T05:10:05.033Z,922.56
2017-01-30T05:11:11.270Z,922.59
2017-01-30T05:11:39.183Z,922.5
2017-01-30T05:12:07.241Z,922.58
2017-01-30T05:12:36.008Z,922.55
2017-01-30T05:13:04.984Z,922.54
2017-01-30T05:13:33.070Z,922.52
2017-01-30T05:14:01.922Z,922.49
2017-01-30T05:14:29.886Z,922.5
2017-01-30T05:14:57.990Z,922.5
2017-01-30T05:15:26.008Z,922.52
2017-01-30T05:15:54.097Z,922.48
2017-01-30T05:16:23.780Z,922.47
2017-01-30T05:16:51.762Z,922.48
2017-01-30T05:17:19.733Z,922.46
2017-01-30T05:17:47.715Z,922.43
2017-01-30T05:18:15.635Z,922.44
2017-01-30T05:18:44.455Z,922.45
2017-01-30T05:19:12.533Z,922.44
2017-01-30T05:19:40.527Z,922.39
2017-01-30T05:20:08.454Z,922.46
2017-01-30T05:20:36.365Z,922.4
2017-01-30T05:21:04.335Z,922.41
2017-01-30T05:21:32.927Z,922.4
2017-01-30T05:22:01.628Z,922.37
2017-01-30T05:22:29.622Z,922.34
2017-01-30T05:22:57.656Z,922.37
2017-01-30T05:23:25.798Z,922.39
2017-01-30T05:23:53.707Z,922.39
2017-01-30T05:24:21.512Z,922.36
2017-01-30T05:24:49.512Z,922.38
2017-01-30T05:25:17.569Z,922.34
2017-01-30T05:25:45.617Z,922.34
2017-01-30T05:26:13.688Z,922.36
2017-01-30T05:26:41.712Z,922.32
2017-01-30T05:27:09.566Z,922.37
2017-01-30T05:27:37.632Z,922.36
2017-01-30T05:28:05.634Z,922.35
2017-01-30T05:28:33.420Z,922.35
2017-01-30T05:29:01.469Z,922.31
2017-01-30T05:29:29.485Z,922.33
2017-01-30T05:29:58.243Z,922.35
2017-01-30T05:30:26.255Z,922.32
2017-01-30T05:30:54.226Z,922.33
2017-01-30T05:31:22.191Z,922.31
2017-01-30T05:31:50.191Z,922.32
2017-01-30T05:32:19.025Z,922.31
2017-01-30T05:32:47.673Z,922.32
2017-01-30T05:33:15.614Z,922.3
2017-01-30T05:33:44.341Z,922.31
2017-01-30T05:34:12.993Z,922.33
2017-01-30T05:34:40.880Z,922.37
2017-01-30T05:35:08.876Z,922.35
2017-01-30T05:35:36.919Z,922.35
2017-01-30T05:36:04.886Z,922.35
2017-01-30T05:36:32.864Z,922.39
2017-01-30T05:37:00.954Z,922.36
2017-01-30T05:37:28.866Z,922.32
2017-01-30T05:37:57.587Z,922.31
2017-01-30T05:38:27.317Z,922.29
2017-01-30T05:38:55.305Z,922.34
2017-01-30T05:39:23.195Z,922.33
2017-01-30T05:39:52.019Z,922.3
2017-01-30T05:40:20.014Z,922.31
2017-01-30T05:40:48.085Z,922.31
2017-01-30T05:41:16.094Z,922.3
2017-01-30T05:41:44.078Z,922.29
2017-01-30T05:42:12.122Z,922.3
2017-01-30T05:42:40.018Z,922.29
2017-01-30T05:43:07.986Z,922.31
2017-01-30T05:43:36.276Z,922.31
2017-01-30T05:44:04.264Z,922.29
2017-01-30T05:44:32.314Z,922.32
2017-01-30T05:45:00.175Z,922.29
2017-01-30T05:45:28.155Z,922.29
2017-01-30T05:45:56.099Z,922.32
2017-01-30T05:46:24.148Z,922.31
2017-01-30T05:46:52.222Z,922.28
2017-01-30T05:47:21.010Z,922.31
2017-01-30T05:47:50.677Z,922.31
2017-01-30T05:48:18.748Z,922.32
2017-01-30T05:48:46.818Z,922.32
2017-01-30T05:49:14.801Z,922.31
2017-01-30T05:50:21.911Z,922.3
2017-01-30T05:50:49.810Z,922.26
2017-01-30T05:51:17.868Z,922.24
2017-01-30T05:51:45.609Z,922.29
2017-01-30T05:52:13.598Z,922.27
2017-01-30T05:52:42.371Z,922.23
2017-01-30T05:53:10.168Z,922.26
2017-01-30T05:53:39.316Z,922.24
2017-01-30T05:54:07.231Z,922.24
2017-01-30T05:54:35.343Z,922.25
2017-01-30T05:55:03.417Z,922.23
2017-01-30T05:55:31.543Z,922.29
2017-01-30T05:55:59.526Z,922.27
2017-01-30T05:56:27.593Z,922.26
2017-01-30T05:56:56.445Z,922.3
2017-01-30T05:57:24.384Z,922.28
2017-01-30T05:57:52.418Z,922.26
2017-01-30T05:58:20.401Z,922.25
2017-01-30T05:58:48.481Z,922.25
2017-01-30T05:59:16.408Z,922.26
2017-01-30T05:59:44.406Z,922.29